createdAt,value
2023-03-26T00:00:08.692Z,98320.88
2023-03-26T00:01:17.619Z,98313.28
2023-03-26T00:02:19.262Z,98316.03
2023-03-26T00:03:21.307Z,98315.53
2023-03-26T00:04:22.850Z,98311.78
2023-03-26T00:05:24.456Z,98313.03
2023-03-26T00:06:28.432Z,98318.69
2023-03-26T00:07:29.968Z,98312.47
2023-03-26T00:08:31.558Z,98310.44
2023-03-26T00:09:33.160Z,98309.72
2023-03-26T00:10:35.881Z,98306.16
2023-03-26T00:11:37.546Z,98307.66
2023-03-26T00:12:39.180Z,98305.28
2023-03-26T00:13:41.234Z,98303.09
2023-03-26T00:14:42.781Z,98301.00
2023-03-26T00:15:44.352Z,98299.50
2023-03-26T00:16:45.935Z,98312.03
2023-03-26T00:17:47.546Z,98301.97
2023-03-26T00:18:49.246Z,98291.19
2023-03-26T00:19:50.798Z,98300.31
2023-03-26T00:20:52.386Z,98305.56
2023-03-26T00:21:53.909Z,98309.16
2023-03-26T00:22:56.150Z,98303.47
2023-03-26T00:24:00.243Z,98305.97
2023-03-26T00:25:01.801Z,98301.41
2023-03-26T00:26:04.209Z,98305.16
2023-03-26T00:27:06.128Z,98304.47
2023-03-26T00:28:08.419Z,98293.44
2023-03-26T00:29:10.390Z,98294.41
2023-03-26T00:30:12.465Z,98294.28
2023-03-26T00:31:15.016Z,98293.31
2023-03-26T00:32:16.580Z,98286.25
2023-03-26T00:33:18.148Z,98284.06
2023-03-26T00:34:19.738Z,98289.44
2023-03-26T00:35:21.424Z,98287.53
2023-03-26T00:36:24.677Z,98286.00
2023-03-26T00:37:26.385Z,98283.97
2023-03-26T00:38:28.896Z,98280.38
2023-03-26T00:39:30.418Z,98281.88
2023-03-26T00:40:32.053Z,98269.47
2023-03-26T00:41:34.046Z,98286.97
2023-03-26T00:42:35.605Z,98293.75
2023-03-26T00:43:37.148Z,98281.88
2023-03-26T00:44:38.751Z,98285.03
2023-03-26T00:45:40.349Z,98286.13
2023-03-26T00:46:42.404Z,98283.69
2023-03-26T00:47:44.038Z,98288.22
2023-03-26T00:48:46.443Z,98289.47
2023-03-26T00:49:48.075Z,98286.13
2023-03-26T00:50:50.424Z,98282.13
2023-03-26T00:51:52.614Z,98282.56
2023-03-26T00:52:54.166Z,98286.25
2023-03-26T00:53:57.492Z,98288.06
2023-03-26T00:54:59.215Z,98290.81
2023-03-26T00:56:00.760Z,98286.53
2023-03-26T00:57:02.436Z,98294.94
2023-03-26T00:58:04.121Z,98291.22
2023-03-26T00:59:05.726Z,98291.53
2023-03-26T01:00:10.490Z,98300.75
2023-03-26T01:01:15.234Z,98291.53
2023-03-26T01:02:19.418Z,98291.53
2023-03-26T01:03:27.717Z,98287.41
2023-03-26T01:04:33.137Z,98292.75
2023-03-26T01:05:34.770Z,98301.16
2023-03-26T01:06:39.890Z,98295.25
2023-03-26T01:07:41.876Z,98290.13
2023-03-26T01:08:44.614Z,98295.25
2023-03-26T01:09:47.437Z,98293.31
2023-03-26T01:10:50.201Z,98293.59
2023-03-26T01:11:52.061Z,98294.00
2023-03-26T01:12:53.811Z,98286.16
2023-03-26T01:14:17.263Z,98288.50
2023-03-26T01:15:19.233Z,98279.97
2023-03-26T01:16:36.748Z,98294.00
2023-03-26T01:17:38.808Z,98291.25
2023-03-26T01:18:40.373Z,98294.81
2023-03-26T01:19:50.068Z,98287.50
2023-03-26T01:20:54.131Z,98290.97
2023-03-26T01:21:57.965Z,98284.06
2023-03-26T01:23:03.289Z,98285.56
2023-03-26T01:24:06.637Z,98289.84
2023-03-26T01:25:08.500Z,98281.16
2023-03-26T01:26:25.324Z,98291.06
2023-03-26T01:27:39.150Z,98279.78
2023-03-26T01:28:41.529Z,98278.81
2023-03-26T01:29:52.769Z,98279.34
2023-03-26T01:31:12.734Z,98277.16
2023-03-26T01:32:24.863Z,98277.28
2023-03-26T01:33:54.705Z,98283.22
2023-03-26T01:35:07.250Z,98274.25
2023-03-26T01:36:20.893Z,98265.72
2023-03-26T01:37:37.518Z,98268.47
2023-03-26T01:39:00.699Z,98274.66
2023-03-26T01:40:46.574Z,98275.38
2023-03-26T01:41:53.462Z,98268.34
2023-03-26T01:43:11.348Z,98268.91
2023-03-26T01:44:34.708Z,98272.09
2023-03-26T01:45:39.709Z,98264.78
2023-03-26T01:46:42.670Z,98260.50
2023-03-26T01:47:46.319Z,98263.53
2023-03-26T01:48:48.320Z,98265.31
2023-03-26T01:49:49.948Z,98257.47
2023-03-26T01:50:51.620Z,98269.56
2023-03-26T01:51:53.177Z,98265.56
2023-03-26T01:52:54.768Z,98264.31
2023-03-26T01:53:57.546Z,98275.25
2023-03-26T01:54:59.237Z,98270.16
2023-03-26T01:56:11.916Z,98272.78
2023-03-26T01:57:35.137Z,98270.41
2023-03-26T01:59:00.663Z,98273.03
2023-03-26T02:00:31.268Z,98274.97
2023-03-26T02:01:43.528Z,98267.81
2023-03-26T02:03:06.624Z,98273.47
2023-03-26T02:04:23.223Z,98265.72
2023-03-26T02:05:50.096Z,98265.19
2023-03-26T02:07:00.004Z,98261.34
2023-03-26T02:08:19.572Z,98259.13
2023-03-26T02:09:28.082Z,98259.13
2023-03-26T02:10:33.804Z,98249.22
2023-03-26T02:11:38.522Z,98245.19
2023-03-26T02:12:42.783Z,98245.47
2023-03-26T02:13:46.012Z,98243.81
2023-03-26T02:14:48.160Z,98251.81
2023-03-26T02:16:01.525Z,98255.69
2023-03-26T02:17:03.169Z,98257.16
2023-03-26T02:18:05.175Z,98252.34
2023-03-26T02:19:07.282Z,98251.00
2023-03-26T02:20:12.558Z,98257.03
2023-03-26T02:21:20.577Z,98263.94
2023-03-26T02:22:22.974Z,98256.91
2023-03-26T02:23:24.643Z,98253.88
2023-03-26T02:24:26.711Z,98262.16
2023-03-26T02:25:30.985Z,98262.16
2023-03-26T02:26:35.073Z,98255.66
2023-03-26T02:27:46.704Z,98255.66
2023-03-26T02:28:48.478Z,98258.81
2023-03-26T02:29:50.675Z,98252.91
2023-03-26T02:30:56.270Z,98252.34
2023-03-26T02:31:59.194Z,98250.53
2023-03-26T02:33:00.848Z,98252.34
2023-03-26T02:34:10.394Z,98254.56
2023-03-26T02:35:14.411Z,98250.97
2023-03-26T02:36:16.335Z,98258.13
2023-03-26T02:37:18.777Z,98251.94
2023-03-26T02:38:23.408Z,98256.66
2023-03-26T02:39:25.485Z,98259.53
2023-03-26T02:40:33.125Z,98247.41
2023-03-26T02:41:34.803Z,98256.22
2023-03-26T02:42:43.318Z,98252.94
2023-03-26T02:43:45.028Z,98259.84
2023-03-26T02:44:50.477Z,98254.19
2023-03-26T02:46:14.644Z,98255.69
2023-03-26T02:47:31.696Z,98259.41
2023-03-26T02:48:53.227Z,98253.38
2023-03-26T02:49:59.759Z,98252.13
2023-03-26T02:51:16.909Z,98248.81
2023-03-26T02:52:27.976Z,98245.22
2023-03-26T02:53:32.120Z,98254.84
2023-03-26T02:54:52.488Z,98251.28
2023-03-26T02:55:57.249Z,98248.97
2023-03-26T02:57:00.139Z,98248.28
2023-03-26T02:58:21.837Z,98240.41
2023-03-26T02:59:23.441Z,98240.72
2023-03-26T03:00:41.615Z,98240.97
2023-03-26T03:02:06.283Z,98242.06
2023-03-26T03:03:09.003Z,98239.88
2023-03-26T03:04:29.114Z,98238.47
2023-03-26T03:05:32.583Z,98237.97
2023-03-26T03:06:49.320Z,98243.88
2023-03-26T03:07:50.947Z,98243.59
2023-03-26T03:08:52.507Z,98249.66
2023-03-26T03:10:14.686Z,98245.66
2023-03-26T03:11:37.574Z,98243.06
2023-03-26T03:12:40.949Z,98238.75
2023-03-26T03:13:43.728Z,98245.81
2023-03-26T03:14:45.823Z,98240.56
2023-03-26T03:15:47.460Z,98238.75
2023-03-26T03:16:49.132Z,98236.31
2023-03-26T03:17:50.955Z,98241.94
2023-03-26T03:18:53.729Z,98250.34
2023-03-26T03:19:56.568Z,98243.47
2023-03-26T03:20:58.418Z,98240.28
2023-03-26T03:22:00.015Z,98244.56
2023-03-26T03:23:02.040Z,98248.56
2023-03-26T03:24:04.937Z,98244.16
2023-03-26T03:25:12.360Z,98240.56
2023-03-26T03:26:17.494Z,98249.13
2023-03-26T03:27:25.570Z,98252.94
2023-03-26T03:28:36.183Z,98248.00
2023-03-26T03:29:37.850Z,98248.16
2023-03-26T03:31:15.851Z,98250.06
2023-03-26T03:32:17.653Z,98248.69
2023-03-26T03:33:22.393Z,98244.81
2023-03-26T03:34:24.096Z,98242.63
2023-03-26T03:35:26.943Z,98255.72
2023-03-26T03:36:32.098Z,98244.41
2023-03-26T03:37:40.871Z,98252.66
2023-03-26T03:38:43.852Z,98243.56
2023-03-26T03:39:47.411Z,98246.06
2023-03-26T03:40:53.276Z,98246.63
2023-03-26T03:41:55.164Z,98242.22
2023-03-26T03:42:57.143Z,98241.13
2023-03-26T03:44:08.020Z,98232.16
2023-03-26T03:45:10.486Z,98239.75
2023-03-26T03:46:30.831Z,98235.44
2023-03-26T03:47:32.683Z,98244.00
2023-03-26T03:48:34.286Z,98238.22
2023-03-26T03:49:36.006Z,98241.53
2023-03-26T03:50:37.648Z,98246.88
2023-03-26T03:52:00.426Z,98248.81
2023-03-26T03:53:08.665Z,98252.16
2023-03-26T03:54:10.444Z,98256.53
2023-03-26T03:55:20.688Z,98264.22
2023-03-26T03:56:27.503Z,98263.94
2023-03-26T03:57:51.718Z,98261.88
2023-03-26T03:58:55.416Z,98258.31
2023-03-26T04:00:06.857Z,98262.44
2023-03-26T04:01:17.011Z,98257.91
2023-03-26T04:02:44.724Z,98262.84
2023-03-26T04:03:47.005Z,98257.34
2023-03-26T04:04:50.217Z,98253.22
2023-03-26T04:05:55.172Z,98257.78
2023-03-26T04:06:59.576Z,98258.19
2023-03-26T04:08:06.973Z,98256.81
2023-03-26T04:09:29.416Z,98264.66
2023-03-26T04:10:35.203Z,98250.63
2023-03-26T04:11:55.415Z,98247.59
2023-03-26T04:13:05.711Z,98254.31
2023-03-26T04:14:23.004Z,98248.25
2023-03-26T04:15:50.559Z,98248.53
2023-03-26T04:16:52.847Z,98251.16
2023-03-26T04:17:54.565Z,98253.34
2023-03-26T04:18:56.804Z,98252.00
2023-03-26T04:19:58.621Z,98251.03
2023-03-26T04:21:05.690Z,98254.72
2023-03-26T04:22:07.494Z,98264.22
2023-03-26T04:23:16.996Z,98256.53
2023-03-26T04:24:21.023Z,98259.16
2023-03-26T04:26:01.706Z,98265.59
2023-03-26T04:27:20.168Z,98266.44
2023-03-26T04:28:40.642Z,98268.09
2023-03-26T04:29:55.132Z,98268.53
2023-03-26T04:31:01.436Z,98260.94
2023-03-26T04:32:19.860Z,98264.22
2023-03-26T04:33:21.771Z,98262.84
2023-03-26T04:34:24.428Z,98257.22
2023-03-26T04:35:35.783Z,98261.09
2023-03-26T04:36:39.842Z,98253.91
2023-03-26T04:37:43.119Z,98262.47
2023-03-26T04:39:05.060Z,98259.72
2023-03-26T04:40:38.776Z,98258.34
2023-03-26T04:42:15.616Z,98252.13
2023-03-26T04:43:32.373Z,98246.63
2023-03-26T04:44:42.840Z,98252.28
2023-03-26T04:45:46.987Z,98241.41
2023-03-26T04:46:49.931Z,98241.09
2023-03-26T04:47:58.308Z,98234.50
2023-03-26T04:49:00.613Z,98238.22
2023-03-26T04:50:09.531Z,98238.09
2023-03-26T04:51:14.389Z,98230.94
2023-03-26T04:52:16.376Z,98235.19
2023-03-26T04:53:36.692Z,98232.44
2023-03-26T04:55:19.521Z,98233.94
2023-03-26T04:56:30.279Z,98238.06
2023-03-26T04:57:44.997Z,98237.25
2023-03-26T04:58:58.686Z,98235.16
2023-03-26T05:00:00.612Z,98231.06
2023-03-26T05:01:10.406Z,98246.19
2023-03-26T05:02:16.037Z,98247.84
2023-03-26T05:03:30.271Z,98250.63
2023-03-26T05:04:32.430Z,98259.28
2023-03-26T05:05:34.026Z,98256.25
2023-03-26T05:06:35.692Z,98258.19
2023-03-26T05:07:43.923Z,98262.97
2023-03-26T05:08:48.213Z,98263.53
2023-03-26T05:10:08.403Z,98265.47
2023-03-26T05:11:22.920Z,98261.72
2023-03-26T05:12:24.897Z,98260.81
2023-03-26T05:13:31.480Z,98267.69
2023-03-26T05:14:38.071Z,98265.19
2023-03-26T05:15:42.061Z,98270.41
2023-03-26T05:17:06.722Z,98262.97
2023-03-26T05:18:08.344Z,98262.84
2023-03-26T05:19:15.991Z,98268.78
2023-03-26T05:20:23.753Z,98271.09
2023-03-26T05:21:26.288Z,98265.59
2023-03-26T05:22:27.876Z,98267.69
2023-03-26T05:23:44.267Z,98263.41
2023-03-26T05:24:52.049Z,98269.06
2023-03-26T05:25:53.990Z,98276.22
2023-03-26T05:26:58.676Z,98272.63
2023-03-26T05:28:01.917Z,98271.66
2023-03-26T05:29:35.678Z,98263.53
2023-03-26T05:30:37.611Z,98269.75
2023-03-26T05:31:39.209Z,98274.69
2023-03-26T05:32:41.036Z,98268.09
2023-03-26T05:33:43.668Z,98265.19
2023-03-26T05:34:47.419Z,98265.19
2023-03-26T05:35:59.199Z,98260.41
2023-03-26T05:37:03.243Z,98261.38
2023-03-26T05:38:18.308Z,98260.53
2023-03-26T05:39:19.965Z,98260.00
2023-03-26T05:40:41.786Z,98257.91
2023-03-26T05:41:47.440Z,98263.00
2023-03-26T05:42:49.132Z,98269.91
2023-03-26T05:44:05.007Z,98252.00
2023-03-26T05:45:09.482Z,98260.13
2023-03-26T05:46:12.447Z,98263.16
2023-03-26T05:47:14.078Z,98245.66
2023-03-26T05:48:15.629Z,98258.06
2023-03-26T05:49:17.428Z,98254.63
2023-03-26T05:50:19.053Z,98264.53
2023-03-26T05:51:21.560Z,98258.06
2023-03-26T05:52:32.526Z,98250.91
2023-03-26T05:53:52.565Z,98260.94
2023-03-26T05:55:12.802Z,98261.50
2023-03-26T05:56:32.981Z,98251.56
2023-03-26T05:57:54.112Z,98260.66
2023-03-26T05:59:15.896Z,98267.41
2023-03-26T06:00:20.264Z,98259.69
2023-03-26T06:01:21.892Z,98262.31
2023-03-26T06:02:41.944Z,98265.06
2023-03-26T06:04:02.480Z,98262.28
2023-03-26T06:05:09.224Z,98262.41
2023-03-26T06:06:33.103Z,98260.25
2023-03-26T06:07:35.217Z,98264.81
2023-03-26T06:09:01.675Z,98267.59
2023-03-26T06:10:05.568Z,98260.94
2023-03-26T06:11:07.270Z,98270.91
2023-03-26T06:12:11.447Z,98267.44
2023-03-26T06:13:14.517Z,98265.50
2023-03-26T06:14:16.206Z,98260.38
2023-03-26T06:15:37.154Z,98262.88
2023-03-26T06:16:48.985Z,98268.13
2023-03-26T06:17:55.427Z,98259.88
2023-03-26T06:19:15.607Z,98273.53
2023-03-26T06:20:43.050Z,98264.75
2023-03-26T06:21:55.220Z,98265.56
2023-03-26T06:23:00.726Z,98260.22
2023-03-26T06:24:21.083Z,98267.13
2023-03-26T06:25:38.983Z,98258.97
2023-03-26T06:27:00.874Z,98261.81
2023-03-26T06:28:28.586Z,98266.38
2023-03-26T06:29:40.702Z,98264.31
2023-03-26T06:30:48.156Z,98265.16
2023-03-26T06:32:25.476Z,98268.97
2023-03-26T06:33:41.323Z,98268.22
2023-03-26T06:34:44.115Z,98273.34
2023-03-26T06:35:45.906Z,98272.44
2023-03-26T06:36:49.220Z,98276.06
2023-03-26T06:37:50.822Z,98276.03
2023-03-26T06:38:52.416Z,98282.13
2023-03-26T06:39:53.974Z,98282.63
2023-03-26T06:41:07.561Z,98269.31
2023-03-26T06:43:07.816Z,98279.63
2023-03-26T06:44:21.228Z,98277.22
2023-03-26T06:45:43.057Z,98273.13
2023-03-26T06:47:03.302Z,98271.81
2023-03-26T06:48:24.795Z,98273.09
2023-03-26T06:49:50.248Z,98267.75
2023-03-26T06:51:14.008Z,98269.72
2023-03-26T06:52:34.074Z,98262.56
2023-03-26T06:53:48.034Z,98273.91
2023-03-26T06:55:12.891Z,98266.78
2023-03-26T06:56:36.696Z,98265.53
2023-03-26T06:58:01.414Z,98257.63
2023-03-26T06:59:35.271Z,98259.22
2023-03-26T07:00:56.474Z,98263.72
2023-03-26T07:02:18.546Z,98257.81
2023-03-26T07:03:38.827Z,98266.44
2023-03-26T07:04:59.145Z,98251.75
2023-03-26T07:06:19.352Z,98264.91
2023-03-26T07:07:46.174Z,98255.78
2023-03-26T07:09:11.704Z,98265.84
2023-03-26T07:10:33.463Z,98272.94
2023-03-26T07:12:10.109Z,98270.31
2023-03-26T07:13:37.919Z,98275.69
2023-03-26T07:15:08.816Z,98266.41
2023-03-26T07:16:45.828Z,98280.09
2023-03-26T07:18:06.060Z,98280.66
2023-03-26T07:19:10.113Z,98272.94
2023-03-26T07:20:14.287Z,98283.03
2023-03-26T07:21:17.153Z,98277.78
2023-03-26T07:22:24.455Z,98282.03
2023-03-26T07:23:44.770Z,98275.41
2023-03-26T07:25:05.979Z,98275.09
2023-03-26T07:26:54.106Z,98274.03
2023-03-26T07:28:21.011Z,98260.25
2023-03-26T07:29:50.765Z,98275.53
2023-03-26T07:31:24.667Z,98261.53
2023-03-26T07:33:03.804Z,98267.06
2023-03-26T07:34:44.014Z,98261.31
2023-03-26T07:36:25.060Z,98253.47
2023-03-26T07:38:16.998Z,98256.59
2023-03-26T07:40:08.562Z,98261.34
2023-03-26T07:42:16.794Z,98262.31
2023-03-26T07:44:14.073Z,98265.72
2023-03-26T07:45:44.318Z,98265.44
2023-03-26T07:47:02.087Z,98247.81
2023-03-26T07:48:22.626Z,98258.56
2023-03-26T07:49:55.215Z,98258.50
2023-03-26T07:51:20.580Z,98255.06
2023-03-26T07:52:29.442Z,98254.69
2023-03-26T07:53:48.082Z,98253.38
2023-03-26T07:55:12.364Z,98252.69
2023-03-26T07:56:45.963Z,98251.53
2023-03-26T07:58:30.968Z,98250.56
2023-03-26T07:59:56.765Z,98252.28
2023-03-26T08:01:25.988Z,98252.06
2023-03-26T08:02:54.833Z,98246.31
2023-03-26T08:04:43.002Z,98256.94
2023-03-26T08:06:37.805Z,98257.59
2023-03-26T08:08:25.769Z,98263.44
2023-03-26T08:10:17.109Z,98252.41
2023-03-26T08:11:56.449Z,98251.06
2023-03-26T08:13:12.612Z,98248.13
2023-03-26T08:14:36.011Z,98244.72
2023-03-26T08:15:52.627Z,98244.03
2023-03-26T08:17:00.817Z,98241.75
2023-03-26T08:18:24.012Z,98252.59
2023-03-26T08:19:48.034Z,98246.13
2023-03-26T08:20:54.035Z,98241.63
2023-03-26T08:22:19.891Z,98232.88
2023-03-26T08:23:50.392Z,98237.63
2023-03-26T08:24:55.689Z,98237.38
2023-03-26T08:26:17.220Z,98238.19
2023-03-26T08:27:43.888Z,98242.91
2023-03-26T08:29:06.584Z,98235.22
2023-03-26T08:30:22.680Z,98240.59
2023-03-26T08:31:33.394Z,98240.06
2023-03-26T08:32:35.442Z,98238.44
2023-03-26T08:33:38.424Z,98237.84
2023-03-26T08:34:40.127Z,98242.56
2023-03-26T08:35:41.867Z,98236.19
2023-03-26T08:36:43.486Z,98241.13
2023-03-26T08:37:45.062Z,98240.50
2023-03-26T08:38:47.031Z,98236.41
2023-03-26T08:39:48.734Z,98238.13
2023-03-26T08:41:12.008Z,98241.91
2023-03-26T08:42:19.345Z,98240.38
2023-03-26T08:43:48.718Z,98235.81
2023-03-26T08:45:08.648Z,98243.13
2023-03-26T08:46:34.452Z,98242.59
2023-03-26T08:48:09.874Z,98239.44
2023-03-26T08:49:25.250Z,98248.06
2023-03-26T08:50:40.067Z,98235.06
2023-03-26T08:52:00.210Z,98239.81
2023-03-26T08:53:16.597Z,98238.22
2023-03-26T08:55:08.571Z,98235.44
2023-03-26T08:56:29.380Z,98238.88
2023-03-26T08:57:57.350Z,98232.38
2023-03-26T08:58:58.838Z,98237.91
2023-03-26T09:00:15.244Z,98234.59
2023-03-26T09:01:43.540Z,98235.00
2023-03-26T09:03:19.153Z,98242.34
2023-03-26T09:04:39.695Z,98238.75
2023-03-26T09:05:44.340Z,98240.75
2023-03-26T09:07:00.789Z,98240.50
2023-03-26T09:08:24.338Z,98238.81
2023-03-26T09:09:59.753Z,98239.84
2023-03-26T09:11:32.466Z,98238.03
2023-03-26T09:13:05.254Z,98241.69
2023-03-26T09:14:06.773Z,98241.34
2023-03-26T09:15:23.761Z,98237.56
2023-03-26T09:16:44.185Z,98238.03
2023-03-26T09:18:17.614Z,98231.03
2023-03-26T09:19:35.802Z,98238.56
2023-03-26T09:20:52.605Z,98244.94
2023-03-26T09:22:15.350Z,98245.47
2023-03-26T09:23:50.678Z,98241.56
2023-03-26T09:25:13.874Z,98241.06
2023-03-26T09:26:18.231Z,98238.44
2023-03-26T09:27:54.028Z,98242.22
2023-03-26T09:29:20.290Z,98240.78
2023-03-26T09:30:58.648Z,98240.13
2023-03-26T09:32:19.441Z,98239.50
2023-03-26T09:33:45.836Z,98241.75
2023-03-26T09:34:56.483Z,98242.88
2023-03-26T09:36:20.077Z,98236.22
2023-03-26T09:37:36.127Z,98230.72
2023-03-26T09:39:03.646Z,98242.00
2023-03-26T09:40:40.869Z,98238.28
2023-03-26T09:42:07.857Z,98240.56
2023-03-26T09:43:28.178Z,98237.47
2023-03-26T09:44:35.691Z,98229.97
2023-03-26T09:46:12.422Z,98232.47
2023-03-26T09:47:40.467Z,98238.06
2023-03-26T09:49:17.463Z,98235.00
2023-03-26T09:50:35.197Z,98230.41
2023-03-26T09:51:48.366Z,98226.84
2023-03-26T09:53:23.920Z,98231.41
2023-03-26T09:54:49.763Z,98217.06
2023-03-26T09:56:08.378Z,98224.50
2023-03-26T09:57:34.831Z,98223.22
2023-03-26T09:59:01.048Z,98214.97
2023-03-26T10:00:41.033Z,98214.81
2023-03-26T10:01:54.487Z,98218.13
2023-03-26T10:03:14.304Z,98215.50
2023-03-26T10:04:37.037Z,98209.78
2023-03-26T10:05:57.346Z,98201.25
2023-03-26T10:07:16.022Z,98204.72
2023-03-26T10:08:23.334Z,98205.88
2023-03-26T10:09:37.277Z,98207.69
2023-03-26T10:10:43.204Z,98210.31
2023-03-26T10:12:07.601Z,98211.47
2023-03-26T10:13:18.087Z,98204.91
2023-03-26T10:14:41.478Z,98212.00
2023-03-26T10:15:59.813Z,98208.22
2023-03-26T10:17:09.490Z,98208.53
2023-03-26T10:18:28.019Z,98201.44
2023-03-26T10:20:15.925Z,98203.28
2023-03-26T10:21:38.256Z,98199.63
2023-03-26T10:23:04.296Z,98195.53
2023-03-26T10:24:53.786Z,98199.47
2023-03-26T10:26:05.291Z,98199.31
2023-03-26T10:27:28.537Z,98192.06
2023-03-26T10:28:48.691Z,98195.38
2023-03-26T10:30:25.117Z,98193.41
2023-03-26T10:32:01.290Z,98177.44
2023-03-26T10:33:30.484Z,98184.19
2023-03-26T10:34:56.711Z,98183.19
2023-03-26T10:36:16.719Z,98184.00
2023-03-26T10:39:01.725Z,98176.94
2023-03-26T10:40:16.240Z,98168.19
2023-03-26T10:41:48.347Z,98165.72
2023-03-26T10:43:15.575Z,98165.72
2023-03-26T10:44:28.214Z,98168.19
2023-03-26T10:45:41.686Z,98160.44
2023-03-26T10:46:52.151Z,98165.38
2023-03-26T10:48:15.815Z,98163.91
2023-03-26T10:50:07.937Z,98159.72
2023-03-26T10:51:36.444Z,98153.16
2023-03-26T10:52:46.687Z,98146.81
2023-03-26T10:53:48.192Z,98159.16
2023-03-26T10:55:08.269Z,98152.28
2023-03-26T10:56:26.305Z,98142.91
2023-03-26T10:57:34.035Z,98149.13
2023-03-26T10:58:48.939Z,98145.28
2023-03-26T10:59:56.701Z,98149.53
2023-03-26T11:01:42.614Z,98147.53
2023-03-26T11:03:03.760Z,98144.00
2023-03-26T11:04:36.182Z,98141.53
2023-03-26T11:05:47.758Z,98143.69
2023-03-26T11:07:02.776Z,98140.44
2023-03-26T11:08:19.039Z,98133.75
2023-03-26T11:10:03.266Z,98140.63
2023-03-26T11:11:11.768Z,98143.09
2023-03-26T11:12:27.348Z,98138.50
2023-03-26T11:13:44.834Z,98145.28
2023-03-26T11:14:56.693Z,98141.91
2023-03-26T11:16:21.806Z,98144.75
2023-03-26T11:17:47.761Z,98143.59
2023-03-26T11:19:09.560Z,98144.75
2023-03-26T11:20:32.109Z,98136.34
2023-03-26T11:21:50.961Z,98137.84
2023-03-26T11:23:13.843Z,98147.56
2023-03-26T11:24:43.162Z,98146.09
2023-03-26T11:26:05.916Z,98142.66
2023-03-26T11:27:25.889Z,98141.84
2023-03-26T11:29:03.982Z,98139.91
2023-03-26T11:30:40.049Z,98140.06
2023-03-26T11:32:17.479Z,98138.91
2023-03-26T11:33:32.787Z,98137.09
2023-03-26T11:34:48.926Z,98136.44
2023-03-26T11:35:55.485Z,98127.53
2023-03-26T11:36:58.813Z,98132.47
2023-03-26T11:38:11.899Z,98123.06
2023-03-26T11:39:22.120Z,98130.81
2023-03-26T11:40:38.685Z,98124.41
2023-03-26T11:41:40.540Z,98129.19
2023-03-26T11:43:24.035Z,98124.56
2023-03-26T11:44:37.802Z,98121.63
2023-03-26T11:45:43.846Z,98123.91
2023-03-26T11:46:48.170Z,98119.13
2023-03-26T11:47:58.944Z,98120.72
2023-03-26T11:49:03.866Z,98119.41
2023-03-26T11:50:10.662Z,98104.75
2023-03-26T11:51:22.986Z,98112.22
2023-03-26T11:52:25.956Z,98101.69
2023-03-26T11:53:31.090Z,98099.84
2023-03-26T11:54:32.741Z,98098.34
2023-03-26T11:55:38.536Z,98099.50
2023-03-26T11:57:05.266Z,98098.66
2023-03-26T11:58:37.184Z,98084.66
2023-03-26T12:00:11.741Z,98084.81
2023-03-26T12:01:25.215Z,98090.22
2023-03-26T12:02:29.923Z,98076.19
2023-03-26T12:03:31.680Z,98076.19
2023-03-26T12:04:38.188Z,98074.63
2023-03-26T12:05:49.330Z,98068.16
2023-03-26T12:06:52.588Z,98068.44
2023-03-26T12:08:03.184Z,98074.19
2023-03-26T12:09:15.675Z,98072.50
2023-03-26T12:10:37.680Z,98072.44
2023-03-26T12:11:41.378Z,98072.91
2023-03-26T12:12:45.970Z,98064.53
2023-03-26T12:13:59.530Z,98068.28
2023-03-26T12:15:01.245Z,98064.75
2023-03-26T12:16:21.632Z,98060.56
2023-03-26T12:17:37.751Z,98053.66
2023-03-26T12:18:40.910Z,98052.44
2023-03-26T12:19:45.062Z,98061.84
2023-03-26T12:20:46.672Z,98054.97
2023-03-26T12:21:52.512Z,98057.72
2023-03-26T12:23:03.150Z,98057.25
2023-03-26T12:24:26.765Z,98054.41
2023-03-26T12:25:31.425Z,98041.69
2023-03-26T12:26:40.521Z,98055.75
2023-03-26T12:27:49.367Z,98051.09
2023-03-26T12:28:51.562Z,98051.03
2023-03-26T12:29:59.945Z,98047.28
2023-03-26T12:31:03.978Z,98037.16
2023-03-26T12:32:07.356Z,98045.28
2023-03-26T12:33:22.092Z,98044.56
2023-03-26T12:34:30.876Z,98044.13
2023-03-26T12:35:35.714Z,98040.38
2023-03-26T12:36:37.371Z,98046.50
2023-03-26T12:37:41.147Z,98044.75
2023-03-26T12:38:43.131Z,98037.94
2023-03-26T12:40:08.733Z,98032.50
2023-03-26T12:42:25.693Z,98023.31
2023-03-26T12:44:43.310Z,98034.00
2023-03-26T12:44:56.532Z,98021.81
2023-03-26T12:45:21.179Z,98022.34
2023-03-26T12:47:57.347Z,98015.41
2023-03-26T12:48:03.368Z,98006.69
2023-03-26T12:49:08.105Z,98003.47
2023-03-26T12:50:14.341Z,98010.22
2023-03-26T12:51:22.137Z,98006.31
2023-03-26T12:52:35.944Z,98001.28
2023-03-26T12:54:02.587Z,97991.34
2023-03-26T12:55:27.852Z,98000.81
2023-03-26T12:57:11.938Z,97996.53
2023-03-26T12:58:45.416Z,97995.00
2023-03-26T12:59:58.319Z,97987.81
2023-03-26T13:01:40.661Z,97990.16
2023-03-26T13:03:09.924Z,97988.09
2023-03-26T13:04:27.503Z,97989.97
2023-03-26T13:05:37.861Z,97992.72
2023-03-26T13:07:01.098Z,97986.63
2023-03-26T13:08:03.957Z,97988.09
2023-03-26T13:09:33.391Z,97990.06
2023-03-26T13:10:56.576Z,97981.97
2023-03-26T13:12:28.262Z,97984.16
2023-03-26T13:14:10.790Z,97986.72
2023-03-26T13:15:44.754Z,97979.78
2023-03-26T13:17:03.882Z,97976.16
2023-03-26T13:18:22.236Z,97976.84
2023-03-26T13:19:34.466Z,97971.94
2023-03-26T13:21:00.827Z,97978.50
2023-03-26T13:22:42.007Z,97976.06
2023-03-26T13:23:59.616Z,97977.22
2023-03-26T13:25:19.296Z,97978.69
2023-03-26T13:26:31.900Z,97970.19
2023-03-26T13:27:55.836Z,97971.56
2023-03-26T13:29:09.627Z,97971.19
2023-03-26T13:30:18.548Z,97970.94
2023-03-26T13:31:35.289Z,97968.47
2023-03-26T13:33:04.397Z,97970.47
2023-03-26T13:34:42.794Z,97968.38
2023-03-26T13:36:22.533Z,97966.88
2023-03-26T13:37:31.924Z,97957.03
2023-03-26T13:38:58.892Z,97962.63
2023-03-26T13:40:27.067Z,97956.25
2023-03-26T13:42:14.791Z,97961.16
2023-03-26T13:43:21.901Z,97955.88
2023-03-26T13:44:32.404Z,97958.16
2023-03-26T13:45:44.785Z,97959.28
2023-03-26T13:46:52.282Z,97959.06
2023-03-26T13:47:57.151Z,97948.56
2023-03-26T13:49:13.250Z,97965.34
2023-03-26T13:50:20.576Z,97955.41
2023-03-26T13:51:29.161Z,97949.09
2023-03-26T13:52:43.639Z,97947.41
2023-03-26T13:53:55.135Z,97944.59
2023-03-26T13:55:16.907Z,97940.84
2023-03-26T13:56:24.231Z,97939.94
2023-03-26T13:57:37.399Z,97942.78
2023-03-26T13:58:43.700Z,97947.41
2023-03-26T13:59:56.137Z,97935.59
2023-03-26T14:01:19.001Z,97946.53
2023-03-26T14:02:37.016Z,97945.25
2023-03-26T14:03:50.766Z,97945.91
2023-03-26T14:05:21.994Z,97937.13
2023-03-26T14:06:39.326Z,97946.44
2023-03-26T14:07:46.835Z,97941.16
2023-03-26T14:08:56.000Z,97947.00
2023-03-26T14:10:21.470Z,97944.59
2023-03-26T14:11:35.396Z,97938.03
2023-03-26T14:12:54.016Z,97940.88
2023-03-26T14:14:06.628Z,97946.59
2023-03-26T14:15:18.163Z,97933.84
2023-03-26T14:16:33.580Z,97934.16
2023-03-26T14:17:41.097Z,97938.97
2023-03-26T14:18:52.525Z,97932.03
2023-03-26T14:20:18.528Z,97936.97
2023-03-26T14:21:36.000Z,97935.97
2023-03-26T14:23:02.211Z,97937.69
2023-03-26T14:24:15.749Z,97936.50
2023-03-26T14:25:52.107Z,97931.16
2023-03-26T14:27:31.689Z,97936.22
2023-03-26T14:28:58.380Z,97937.84
2023-03-26T14:30:30.639Z,97930.75
2023-03-26T14:31:42.820Z,97932.28
2023-03-26T14:33:33.814Z,97933.94